Time;durP1;ratioP1;P1;durP2;ratioP2;P2;SDS_P1;SDS_P2;PMS_P1;PMS_P2;Temp;Humidity;BMP_temperature;BMP_pressure;BME280_temperature;BME280_humidity;BME280_pressure;Samples;Min_cycle;Max_cycle;Signal;HPM_P1;HPM_P2
2021/12/01 00:01:41;;;;;;;11.70;4.18;;;;;;;;;;6234248;28;20374;-87
2021/12/01 00:04:42;;;;;;;10.23;3.22;;;;;;;;;;6230308;28;20052;-87
2021/12/01 00:07:42;;;;;;;12.73;4.28;;;;;;;;;;6236903;28;20018;-86
2021/12/01 00:10:43;;;;;;;8.20;2.75;;;;;;;;;;6236560;28;20382;-86
2021/12/01 00:13:43;;;;;;;7.03;3.00;;;;;;;;;;6230759;28;20013;-86
2021/12/01 00:16:44;;;;;;;10.98;3.88;;;;;;;;;;6238665;28;20029;-87
2021/12/01 00:19:44;;;;;;;14.13;4.97;;;;;;;;;;6240026;28;20147;-87
2021/12/01 00:22:45;;;;;;;9.05;3.53;;;;;;;;;;6239322;28;20099;-88
2021/12/01 00:25:45;;;;;;;12.98;3.97;;;;;;;;;;6235552;28;20028;-86
2021/12/01 00:28:45;;;;;;;12.90;4.30;;;;;;;;;;6232433;28;20067;-86
2021/12/01 00:31:45;;;;;;;17.00;4.57;;;;;;;;;;6239616;28;20022;-87
2021/12/01 00:34:46;;;;;;;18.73;5.20;;;;;;;;;;6233880;28;20523;-86
2021/12/01 00:37:46;;;;;;;15.32;3.35;;;;;;;;;;6234566;28;20153;-87
2021/12/01 00:40:46;;;;;;;10.02;2.22;;;;;;;;;;6232324;28;20018;-88
2021/12/01 00:43:47;;;;;;;7.80;3.28;;;;;;;;;;6240007;28;20033;-87
2021/12/01 00:46:56;;;;;;;8.40;3.17;;;;;;;;;;6239525;28;20047;-86
2021/12/01 00:49:56;;;;;;;8.57;3.33;;;;;;;;;;6233110;28;20136;-87
2021/12/01 00:52:59;;;;;;;4.80;2.78;;;;;;;;;;6235636;28;20025;-87
2021/12/01 00:55:59;;;;;;;11.70;3.08;;;;;;;;;;6230634;28;20025;-87
2021/12/01 00:59:00;;;;;;;9.95;2.55;;;;;;;;;;6230746;28;20448;-87
2021/12/01 01:02:01;;;;;;;18.70;3.87;;;;;;;;;;6234304;28;21554;-87
2021/12/01 01:05:02;;;;;;;8.30;2.58;;;;;;;;;;6243367;28;20280;-87
2021/12/01 01:08:03;;;;;;;9.52;3.50;;;;;;;;;;6234935;28;20009;-87
2021/12/01 01:17:38;;;;;;;12.82;3.20;;;;;;;;;;6233674;28;20412;-87
2021/12/01 01:20:39;;;;;;;6.32;2.42;;;;;;;;;;6230675;28;20014;-87
2021/12/01 01:23:39;;;;;;;10.05;3.60;;;;;;;;;;6245838;28;20025;-87
2021/12/01 01:26:39;;;;;;;17.13;4.25;;;;;;;;;;6243580;28;20053;-88
2021/12/01 01:29:40;;;;;;;24.95;10.00;;;;;;;;;;6233591;28;20414;-88
2021/12/01 01:32:40;;;;;;;28.52;10.02;;;;;;;;;;6240984;28;20100;-88
2021/12/01 01:35:40;;;;;;;43.30;11.23;;;;;;;;;;6235663;28;20018;-88
2021/12/01 01:38:41;;;;;;;39.63;12.43;;;;;;;;;;6230411;28;20493;-88
2021/12/01 01:41:42;;;;;;;17.40;7.00;;;;;;;;;;6237840;28;20032;-88
2021/12/01 01:44:42;;;;;;;31.10;10.07;;;;;;;;;;6230462;28;20083;-88
2021/12/01 01:47:49;;;;;;;34.67;12.00;;;;;;;;;;6239526;28;20064;-88
2021/12/01 01:50:50;;;;;;;30.98;10.38;;;;;;;;;;6226314;28;20060;-88
2021/12/01 01:53:53;;;;;;;30.98;10.57;;;;;;;;;;6250379;28;20025;-88
2021/12/01 01:56:53;;;;;;;38.42;13.00;;;;;;;;;;6232292;28;20369;-87
2021/12/01 01:59:54;;;;;;;18.20;6.13;;;;;;;;;;6229943;28;20017;-87
2021/12/01 02:02:56;;;;;;;6.32;2.78;;;;;;;;;;6236761;28;20018;-88
2021/12/01 02:05:57;;;;;;;16.30;3.28;;;;;;;;;;6237440;28;20033;-87
2021/12/01 02:08:58;;;;;;;6.70;2.60;;;;;;;;;;6235628;28;20017;-87
2021/12/01 02:12:00;;;;;;;6.97;2.42;;;;;;;;;;6238197;28;20033;-88
2021/12/01 02:15:00;;;;;;;11.52;3.65;;;;;;;;;;6232956;28;20026;-87
2021/12/01 02:18:01;;;;;;;14.15;3.50;;;;;;;;;;6229425;28;20518;-87
2021/12/01 02:21:01;;;;;;;11.27;3.75;;;;;;;;;;6234641;28;20021;-86
2021/12/01 02:24:03;;;;;;;9.93;5.13;;;;;;;;;;6237310;28;21379;-87
2021/12/01 02:27:03;;;;;;;2.90;2.40;;;;;;;;;;6231212;28;20029;-87
2021/12/01 02:30:04;;;;;;;7.55;3.50;;;;;;;;;;6233142;28;20021;-87
2021/12/01 02:33:04;;;;;;;3.75;2.50;;;;;;;;;;6233023;28;20425;-87
2021/12/01 02:36:07;;;;;;;10.80;3.13;;;;;;;;;;6241170;28;20022;-87
2021/12/01 02:39:11;;;;;;;8.35;3.50;;;;;;;;;;6232123;28;20014;-87
2021/12/01 02:42:17;;;;;;;7.25;3.20;;;;;;;;;;6237730;28;20021;-87
2021/12/01 02:45:18;;;;;;;7.30;3.28;;;;;;;;;;6230466;28;20032;-87
2021/12/01 02:48:18;;;;;;;7.15;2.72;;;;;;;;;;6231945;28;20029;-87
2021/12/01 02:51:23;;;;;;;14.68;4.00;;;;;;;;;;6232834;28;20037;-87
2021/12/01 02:54:24;;;;;;;14.15;4.25;;;;;;;;;;6232350;28;20032;-87
2021/12/01 02:57:24;;;;;;;10.43;4.47;;;;;;;;;;6234373;28;20018;-87
2021/12/01 03:00:25;;;;;;;4.88;2.70;;;;;;;;;;6249672;28;20261;-87
2021/12/01 03:03:25;;;;;;;12.00;4.63;;;;;;;;;;6239849;28;20029;-87
2021/12/01 03:06:26;;;;;;;8.90;3.75;;;;;;;;;;6233510;28;20024;-87
2021/12/01 03:09:26;;;;;;;6.80;3.75;;;;;;;;;;6225209;28;20021;-87
2021/12/01 03:12:28;;;;;;;13.35;4.45;;;;;;;;;;6234284;28;20472;-87
2021/12/01 03:15:28;;;;;;;5.05;3.25;;;;;;;;;;6238701;28;20386;-87
2021/12/01 03:18:29;;;;;;;5.95;3.90;;;;;;;;;;6229269;28;20141;-87
2021/12/01 03:21:29;;;;;;;7.47;3.90;;;;;;;;;;6236431;28;20033;-87
2021/12/01 03:24:33;;;;;;;10.48;3.38;;;;;;;;;;6239552;28;20025;-87
2021/12/01 03:27:33;;;;;;;16.92;6.47;;;;;;;;;;6232765;28;20549;-87
2021/12/01 03:30:34;;;;;;;8.65;5.97;;;;;;;;;;6240673;28;20013;-87
2021/12/01 03:33:35;;;;;;;7.27;2.97;;;;;;;;;;6229903;28;20391;-87
2021/12/01 03:36:35;;;;;;;6.47;2.83;;;;;;;;;;6238895;28;20337;-87
2021/12/01 03:39:35;;;;;;;6.38;3.38;;;;;;;;;;6251504;28;20437;-87
2021/12/01 03:42:36;;;;;;;6.30;3.72;;;;;;;;;;6233629;28;20018;-87
2021/12/01 03:45:36;;;;;;;10.20;4.22;;;;;;;;;;6235726;28;20066;-87
2021/12/01 03:48:36;;;;;;;9.88;3.88;;;;;;;;;;6229602;28;20045;-87
2021/12/01 03:51:37;;;;;;;5.40;2.92;;;;;;;;;;6241391;28;20025;-87
2021/12/01 03:54:37;;;;;;;4.18;2.63;;;;;;;;;;6250844;28;20064;-87
2021/12/01 03:57:38;;;;;;;7.97;3.78;;;;;;;;;;6239704;28;20469;-88
2021/12/01 04:00:38;;;;;;;8.82;3.60;;;;;;;;;;6230562;28;20018;-87
2021/12/01 04:03:39;;;;;;;9.20;3.92;;;;;;;;;;6241562;28;20025;-88
2021/12/01 04:06:39;;;;;;;8.13;3.75;;;;;;;;;;6236950;28;20520;-88
2021/12/01 04:09:41;;;;;;;13.65;4.90;;;;;;;;;;6249369;28;20026;-88
2021/12/01 04:12:42;;;;;;;8.80;3.85;;;;;;;;;;6240119;28;20140;-88
2021/12/01 04:15:42;;;;;;;9.18;5.15;;;;;;;;;;6239983;28;20038;-88
2021/12/01 04:18:44;;;;;;;9.75;4.82;;;;;;;;;;6232452;28;20024;-88
2021/12/01 04:21:44;;;;;;;8.40;3.92;;;;;;;;;;6237470;28;20021;-88
2021/12/01 04:24:45;;;;;;;5.93;4.07;;;;;;;;;;6246748;28;20036;-88
2021/12/01 04:27:45;;;;;;;8.48;4.82;;;;;;;;;;6232187;28;20367;-88
2021/12/01 04:30:45;;;;;;;7.20;4.22;;;;;;;;;;6236233;28;20493;-88
2021/12/01 04:33:45;;;;;;;8.82;4.45;;;;;;;;;;6231898;28;20026;-89
2021/12/01 04:36:48;;;;;;;10.43;5.25;;;;;;;;;;6239104;28;20025;-88
2021/12/01 04:39:48;;;;;;;13.93;6.45;;;;;;;;;;6234268;28;20377;-88
2021/12/01 04:42:48;;;;;;;23.08;6.20;;;;;;;;;;6237158;28;20010;-88
2021/12/01 04:45:54;;;;;;;11.10;5.32;;;;;;;;;;6241454;28;20033;-88
2021/12/01 04:48:54;;;;;;;10.52;4.97;;;;;;;;;;6234858;28;20065;-88
2021/12/01 04:51:56;;;;;;;11.18;5.80;;;;;;;;;;6239655;28;20026;-88
2021/12/01 04:54:56;;;;;;;7.72;3.38;;;;;;;;;;6232682;28;20460;-88
2021/12/01 04:57:57;;;;;;;14.95;6.22;;;;;;;;;;6232358;28;20014;-87
2021/12/01 05:00:58;;;;;;;11.15;6.72;;;;;;;;;;6226504;28;20029;-88
2021/12/01 05:03:58;;;;;;;18.65;6.47;;;;;;;;;;6236692;28;20021;-88
2021/12/01 05:06:58;;;;;;;22.60;8.15;;;;;;;;;;6238433;28;20024;-88
2021/12/01 05:09:59;;;;;;;10.80;5.47;;;;;;;;;;6236935;28;20044;-87
2021/12/01 05:12:59;;;;;;;6.97;3.20;;;;;;;;;;6241273;28;20029;-87
2021/12/01 05:15:59;;;;;;;16.70;7.45;;;;;;;;;;6225026;28;20025;-88
2021/12/01 05:19:00;;;;;;;5.72;3.83;;;;;;;;;;6240063;28;20095;-87
2021/12/01 05:22:02;;;;;;;6.63;3.00;;;;;;;;;;6234727;28;20025;-87
2021/12/01 05:25:02;;;;;;;7.90;4.03;;;;;;;;;;6243182;28;20063;-87
2021/12/01 05:28:03;;;;;;;10.77;5.10;;;;;;;;;;6231764;28;20021;-88
2021/12/01 05:31:03;;;;;;;12.57;5.93;;;;;;;;;;6244277;28;20009;-88
2021/12/01 05:34:04;;;;;;;16.85;8.70;;;;;;;;;;6240884;28;20101;-87
2021/12/01 05:37:04;;;;;;;30.60;18.23;;;;;;;;;;6232071;28;20386;-88
2021/12/01 05:40:05;;;;;;;14.23;7.32;;;;;;;;;;6227306;28;20010;-87
2021/12/01 05:43:05;;;;;;;9.32;4.95;;;;;;;;;;6229928;28;20018;-88
2021/12/01 05:46:05;;;;;;;15.40;7.25;;;;;;;;;;6238146;28;20018;-87
2021/12/01 05:49:06;;;;;;;12.73;6.82;;;;;;;;;;6233560;28;20120;-88
2021/12/01 05:52:07;;;;;;;12.57;6.82;;;;;;;;;;6248219;28;20108;-88
2021/12/01 05:55:08;;;;;;;16.98;7.95;;;;;;;;;;6228653;28;20398;-88
2021/12/01 05:58:08;;;;;;;14.18;8.23;;;;;;;;;;6232005;28;20017;-87
2021/12/01 06:01:09;;;;;;;17.80;9.13;;;;;;;;;;6229801;28;20026;-87
2021/12/01 06:04:09;;;;;;;11.30;5.95;;;;;;;;;;6234539;28;20033;-87
2021/12/01 06:07:09;;;;;;;22.50;11.27;;;;;;;;;;6232890;28;20018;-87
2021/12/01 06:10:10;;;;;;;12.50;7.05;;;;;;;;;;6231033;28;20036;-87
2021/12/01 06:13:13;;;;;;;7.22;4.93;;;;;;;;;;6233103;28;20032;-88
2021/12/01 06:16:14;;;;;;;15.57;8.25;;;;;;;;;;6227081;28;20039;-88
2021/12/01 06:19:15;;;;;;;19.70;10.15;;;;;;;;;;6228988;28;20050;-88
2021/12/01 06:22:15;;;;;;;9.63;4.72;;;;;;;;;;6237329;28;20368;-88
2021/12/01 06:25:15;;;;;;;18.20;6.47;;;;;;;;;;6247676;28;20028;-87
2021/12/01 06:28:16;;;;;;;9.70;4.50;;;;;;;;;;6236312;28;20026;-88
2021/12/01 06:31:16;;;;;;;12.60;5.70;;;;;;;;;;6241097;28;20389;-88
2021/12/01 06:34:16;;;;;;;12.57;6.53;;;;;;;;;;6237767;28;20025;-88
2021/12/01 06:37:18;;;;;;;18.40;7.57;;;;;;;;;;6237367;28;20026;-88
2021/12/01 06:40:18;;;;;;;12.18;7.38;;;;;;;;;;6236214;28;20022;-88
2021/12/01 06:43:18;;;;;;;11.18;5.20;;;;;;;;;;6241717;28;19994;-88
2021/12/01 06:46:19;;;;;;;9.88;5.50;;;;;;;;;;6239006;28;20040;-88
2021/12/01 06:49:19;;;;;;;15.43;7.47;;;;;;;;;;6231873;28;20069;-88
2021/12/01 06:52:19;;;;;;;11.52;6.22;;;;;;;;;;6234961;28;20033;-87
2021/12/01 06:55:21;;;;;;;17.70;7.55;;;;;;;;;;6244211;28;20075;-87
2021/12/01 06:58:21;;;;;;;12.43;7.28;;;;;;;;;;6241083;28;20014;-87
2021/12/01 07:01:21;;;;;;;13.57;8.40;;;;;;;;;;6250211;28;20010;-87
2021/12/01 07:04:21;;;;;;;20.73;10.48;;;;;;;;;;6239346;28;20470;-87
2021/12/01 07:07:22;;;;;;;21.02;10.63;;;;;;;;;;6236368;28;20657;-87
2021/12/01 07:10:22;;;;;;;31.90;14.90;;;;;;;;;;6242292;28;20010;-87
2021/12/01 07:13:22;;;;;;;33.75;14.27;;;;;;;;;;6239247;28;20078;-88
2021/12/01 07:16:23;;;;;;;22.33;12.70;;;;;;;;;;6243176;28;20021;-88
2021/12/01 07:19:23;;;;;;;27.67;12.25;;;;;;;;;;6246881;28;20109;-87
2021/12/01 07:22:24;;;;;;;31.85;13.93;;;;;;;;;;6242587;28;20386;-88
2021/12/01 07:25:24;;;;;;;44.90;17.73;;;;;;;;;;6241484;28;20029;-87
2021/12/01 07:28:25;;;;;;;34.08;18.40;;;;;;;;;;6242240;28;20102;-87
2021/12/01 07:31:25;;;;;;;40.88;22.60;;;;;;;;;;6241688;28;20022;-88
2021/12/01 07:34:25;;;;;;;29.50;13.23;;;;;;;;;;6244890;28;20033;-88
2021/12/01 07:37:25;;;;;;;30.23;12.32;;;;;;;;;;6244576;28;20386;-88
2021/12/01 07:40:26;;;;;;;27.25;14.20;;;;;;;;;;6238001;28;20117;-87
2021/12/01 07:43:26;;;;;;;35.55;17.75;;;;;;;;;;6236012;28;20041;-88
2021/12/01 07:46:26;;;;;;;21.77;11.88;;;;;;;;;;6240598;28;20056;-88
2021/12/01 07:49:27;;;;;;;35.97;14.88;;;;;;;;;;6244659;28;20128;-87
2021/12/01 07:52:27;;;;;;;37.50;15.52;;;;;;;;;;6250774;28;20027;-88
2021/12/01 07:55:27;;;;;;;29.40;14.05;;;;;;;;;;6236232;28;20029;-87
2021/12/01 07:58:28;;;;;;;37.25;14.88;;;;;;;;;;6235114;28;20029;-87
2021/12/01 08:01:28;;;;;;;24.02;11.90;;;;;;;;;;6238839;28;20077;-87
2021/12/01 08:04:28;;;;;;;22.83;12.35;;;;;;;;;;6238312;28;20048;-87
2021/12/01 08:07:33;;;;;;;28.98;12.23;;;;;;;;;;6234838;28;20032;-87
2021/12/01 08:10:33;;;;;;;20.00;9.73;;;;;;;;;;6234195;28;20014;-87
2021/12/01 08:13:34;;;;;;;18.02;8.10;;;;;;;;;;6238124;28;20052;-87
2021/12/01 08:16:35;;;;;;;19.25;7.20;;;;;;;;;;6241863;28;20057;-86
2021/12/01 08:19:35;;;;;;;12.88;3.45;;;;;;;;;;6239972;28;20386;-86
2021/12/01 08:22:35;;;;;;;16.52;6.93;;;;;;;;;;6245934;28;20048;-86
2021/12/01 08:25:36;;;;;;;17.38;6.82;;;;;;;;;;6241674;28;20022;-87
2021/12/01 08:28:36;;;;;;;24.90;12.38;;;;;;;;;;6236634;28;20025;-87
2021/12/01 08:31:36;;;;;;;30.58;13.85;;;;;;;;;;6234621;28;20621;-86
2021/12/01 08:34:37;;;;;;;36.13;14.60;;;;;;;;;;6241466;28;20028;-86
2021/12/01 08:37:37;;;;;;;46.53;19.80;;;;;;;;;;6228686;28;20528;-87
2021/12/01 08:40:37;;;;;;;37.97;16.98;;;;;;;;;;6241363;28;20385;-86
2021/12/01 08:43:38;;;;;;;31.05;14.15;;;;;;;;;;6250955;28;20018;-87
2021/12/01 08:46:38;;;;;;;19.17;6.82;;;;;;;;;;6231152;28;20124;-86
2021/12/01 08:49:39;;;;;;;17.05;8.73;;;;;;;;;;6237004;28;20049;-87
2021/12/01 08:52:39;;;;;;;12.23;5.68;;;;;;;;;;6250475;28;20029;-87
2021/12/01 08:55:41;;;;;;;12.48;5.40;;;;;;;;;;6235384;28;20017;-86
2021/12/01 08:58:41;;;;;;;18.17;6.47;;;;;;;;;;6241474;28;20120;-86
2021/12/01 09:01:41;;;;;;;16.48;7.25;;;;;;;;;;6237569;28;20018;-87
2021/12/01 09:04:42;;;;;;;8.23;5.05;;;;;;;;;;6234685;28;20382;-86
2021/12/01 09:07:42;;;;;;;14.18;5.68;;;;;;;;;;6233930;28;20022;-86
2021/12/01 09:10:42;;;;;;;12.30;4.93;;;;;;;;;;6234115;28;20013;-86
2021/12/01 09:13:42;;;;;;;9.43;4.80;;;;;;;;;;6239598;28;20041;-86
2021/12/01 09:16:44;;;;;;;15.38;5.53;;;;;;;;;;6233925;28;20456;-86
2021/12/01 09:19:44;;;;;;;15.10;5.30;;;;;;;;;;6240677;28;20049;-87
2021/12/01 09:22:45;;;;;;;9.68;4.60;;;;;;;;;;6238572;28;20014;-87
2021/12/01 09:25:46;;;;;;;12.82;5.55;;;;;;;;;;6233935;28;20442;-86
2021/12/01 09:28:46;;;;;;;10.80;5.60;;;;;;;;;;6230655;28;20443;-87
2021/12/01 09:31:46;;;;;;;10.27;4.78;;;;;;;;;;6232937;28;20048;-87
2021/12/01 09:34:46;;;;;;;10.60;4.50;;;;;;;;;;6234999;28;20024;-86
2021/12/01 09:37:47;;;;;;;11.60;5.43;;;;;;;;;;6236241;28;20092;-86
2021/12/01 09:40:51;;;;;;;14.30;6.15;;;;;;;;;;6239895;28;20016;-87
2021/12/01 09:43:51;;;;;;;13.32;6.88;;;;;;;;;;6230889;28;20026;-87
2021/12/01 09:46:52;;;;;;;8.38;4.60;;;;;;;;;;6230527;28;20072;-86
2021/12/01 09:49:52;;;;;;;16.80;7.03;;;;;;;;;;6231862;28;20049;-86
2021/12/01 09:52:52;;;;;;;12.30;5.95;;;;;;;;;;6232918;28;20096;-86
2021/12/01 09:55:53;;;;;;;10.70;5.05;;;;;;;;;;6235768;28;20014;-86
2021/12/01 09:58:53;;;;;;;25.15;8.88;;;;;;;;;;6251856;28;20022;-86
2021/12/01 10:01:53;;;;;;;19.08;8.00;;;;;;;;;;6236763;28;20571;-86
2021/12/01 10:04:54;;;;;;;13.70;5.75;;;;;;;;;;6233154;28;20179;-87
2021/12/01 10:07:54;;;;;;;10.43;5.40;;;;;;;;;;6229878;28;20013;-87
2021/12/01 10:10:55;;;;;;;19.20;6.93;;;;;;;;;;6234178;28;20034;-87
2021/12/01 10:13:59;;;;;;;13.05;6.15;;;;;;;;;;6233967;28;20385;-86
2021/12/01 10:17:00;;;;;;;14.27;6.72;;;;;;;;;;6228750;28;20509;-87
2021/12/01 10:20:14;;;;;;;25.20;9.20;;;;;;;;;;6233499;28;20018;-86
2021/12/01 10:23:14;;;;;;;11.30;5.95;;;;;;;;;;6235544;28;20010;-87
2021/12/01 10:26:17;;;;;;;16.20;8.20;;;;;;;;;;6235524;28;20057;-87
2021/12/01 10:29:25;;;;;;;25.98;7.95;;;;;;;;;;6245216;28;20026;-87
2021/12/01 10:32:25;;;;;;;12.23;6.18;;;;;;;;;;6238853;28;20490;-87
2021/12/01 10:35:33;;;;;;;14.50;4.47;;;;;;;;;;6233366;28;20033;-87
2021/12/01 10:38:35;;;;;;;8.63;4.43;;;;;;;;;;6232734;28;20027;-87
2021/12/01 10:41:37;;;;;;;21.73;8.57;;;;;;;;;;6233253;28;20014;-86
2021/12/01 10:44:53;;;;;;;18.90;7.07;;;;;;;;;;6231819;28;20018;-87
2021/12/01 10:47:53;;;;;;;18.33;6.45;;;;;;;;;;6231371;28;20044;-87
2021/12/01 10:50:54;;;;;;;16.60;8.30;;;;;;;;;;6236505;28;20037;-87
2021/12/01 10:53:58;;;;;;;14.63;6.57;;;;;;;;;;6241351;28;20033;-87
2021/12/01 10:57:21;;;;;;;16.27;7.43;;;;;;;;;;6231068;28;20029;-87
2021/12/01 11:00:27;;;;;;;11.85;5.53;;;;;;;;;;6226295;28;20018;-87
2021/12/01 11:03:30;;;;;;;11.57;5.53;;;;;;;;;;6232795;28;20432;-87
2021/12/01 11:06:34;;;;;;;7.00;4.15;;;;;;;;;;6230198;28;20025;-87
2021/12/01 11:09:34;;;;;;;18.05;8.43;;;;;;;;;;6228859;28;20022;-87
2021/12/01 11:12:35;;;;;;;14.05;6.93;;;;;;;;;;6233062;28;20025;-87
2021/12/01 11:15:43;;;;;;;16.42;7.57;;;;;;;;;;6237534;28;20028;-87
2021/12/01 11:18:44;;;;;;;10.15;5.85;;;;;;;;;;6238944;28;20037;-87
2021/12/01 11:21:45;;;;;;;12.63;5.97;;;;;;;;;;6235604;28;20052;-87
2021/12/01 11:24:45;;;;;;;8.57;4.43;;;;;;;;;;6233659;28;20029;-88
2021/12/01 11:27:45;;;;;;;10.73;6.30;;;;;;;;;;6230680;28;20044;-87
2021/12/01 11:30:50;;;;;;;10.88;4.13;;;;;;;;;;6234826;28;20030;-87
2021/12/01 11:33:55;;;;;;;24.70;10.10;;;;;;;;;;6226739;28;20026;-86
2021/12/01 11:36:55;;;;;;;13.88;3.05;;;;;;;;;;6232915;28;20017;-87
2021/12/01 11:39:56;;;;;;;7.88;4.05;;;;;;;;;;6238586;28;20021;-87
2021/12/01 11:42:57;;;;;;;19.67;7.47;;;;;;;;;;6245109;28;20021;-86
2021/12/01 11:45:58;;;;;;;22.25;8.88;;;;;;;;;;6237111;28;20087;-87
2021/12/01 11:49:00;;;;;;;13.25;5.93;;;;;;;;;;6242190;28;20049;-87
2021/12/01 11:52:04;;;;;;;12.82;5.97;;;;;;;;;;6241191;28;20060;-87
2021/12/01 11:55:04;;;;;;;12.82;5.22;;;;;;;;;;6237329;28;20029;-87
2021/12/01 11:58:04;;;;;;;7.72;4.32;;;;;;;;;;6239124;28;20049;-86
2021/12/01 12:01:05;;;;;;;13.48;5.35;;;;;;;;;;6238144;28;20018;-87
2021/12/01 12:04:05;;;;;;;10.07;4.45;;;;;;;;;;6230970;28;20461;-86
2021/12/01 12:07:07;;;;;;;4.13;2.88;;;;;;;;;;6229399;28;20033;-87
2021/12/01 12:10:12;;;;;;;8.27;3.28;;;;;;;;;;6232996;28;20500;-87
2021/12/01 12:13:15;;;;;;;5.25;3.45;;;;;;;;;;6228906;28;20560;-87
2021/12/01 12:16:15;;;;;;;;;;;;;;;;;;6251461;28;20018;-87
2021/12/01 12:19:15;;;;;;;14.05;5.75;;;;;;;;;;6245469;28;19943;-87
2021/12/01 12:22:24;;;;;;;19.55;6.45;;;;;;;;;;6239118;28;20037;-86
2021/12/01 12:25:36;;;;;;;12.75;4.88;;;;;;;;;;6231260;28;20477;-87
2021/12/01 12:28:37;;;;;;;11.52;5.35;;;;;;;;;;6233061;28;20085;-87
2021/12/01 12:31:38;;;;;;;9.60;5.40;;;;;;;;;;6239942;28;20024;-86
2021/12/01 12:34:48;;;;;;;10.80;4.28;;;;;;;;;;6245243;28;20430;-86
2021/12/01 12:37:48;;;;;;;11.60;5.00;;;;;;;;;;6234763;28;20124;-87
2021/12/01 12:40:58;;;;;;;12.25;4.45;;;;;;;;;;6241507;28;20572;-86
2021/12/01 12:44:18;;;;;;;12.60;4.65;;;;;;;;;;6236929;28;20049;-88
2021/12/01 12:47:23;;;;;;;15.63;6.18;;;;;;;;;;6244719;28;20075;-87
2021/12/01 12:50:24;;;;;;;10.38;3.97;;;;;;;;;;6239325;28;20052;-87
2021/12/01 12:53:24;;;;;;;10.32;3.60;;;;;;;;;;6236044;28;20053;-87
2021/12/01 12:56:26;;;;;;;13.15;5.22;;;;;;;;;;6231363;28;20033;-87
2021/12/01 12:59:31;;;;;;;10.25;4.70;;;;;;;;;;6240401;28;20033;-87
2021/12/01 13:02:32;;;;;;;8.45;5.07;;;;;;;;;;6239531;28;20032;-87
2021/12/01 13:05:32;;;;;;;19.85;6.78;;;;;;;;;;6241308;28;20030;-87
2021/12/01 13:08:34;;;;;;;14.45;7.35;;;;;;;;;;6246774;28;20108;-87
2021/12/01 13:11:34;;;;;;;13.88;5.32;;;;;;;;;;6245410;28;20025;-87
2021/12/01 13:14:38;;;;;;;11.63;6.40;;;;;;;;;;6242210;28;20021;-87
2021/12/01 13:17:39;;;;;;;12.23;6.70;;;;;;;;;;6241804;28;20061;-87
2021/12/01 13:20:43;;;;;;;12.52;5.25;;;;;;;;;;6242608;28;20025;-87
2021/12/01 13:23:50;;;;;;;15.35;5.95;;;;;;;;;;6235456;28;20017;-87
2021/12/01 13:26:54;;;;;;;18.85;6.32;;;;;;;;;;6240037;28;20021;-87
2021/12/01 13:30:06;;;;;;;11.10;4.47;;;;;;;;;;6242228;28;20053;-87
2021/12/01 13:33:08;;;;;;;12.80;5.00;;;;;;;;;;6245649;28;20776;-87
2021/12/01 13:36:12;;;;;;;18.67;7.13;;;;;;;;;;6236159;28;20036;-88
2021/12/01 13:39:14;;;;;;;21.27;9.63;;;;;;;;;;6234670;28;20018;-87
2021/12/01 13:42:20;;;;;;;12.88;5.60;;;;;;;;;;6244436;28;20062;-88
2021/12/01 13:45:24;;;;;;;15.48;8.05;;;;;;;;;;6239232;28;20463;-87
2021/12/01 13:48:24;;;;;;;7.68;5.28;;;;;;;;;;6237320;28;20152;-88
2021/12/01 13:51:25;;;;;;;6.47;4.15;;;;;;;;;;6239864;28;20059;-87
2021/12/01 13:54:25;;;;;;;7.63;4.47;;;;;;;;;;6246837;28;20032;-88
2021/12/01 13:57:25;;;;;;;12.48;5.45;;;;;;;;;;6246071;28;20024;-87
2021/12/01 14:00:31;;;;;;;11.00;6.20;;;;;;;;;;6241468;28;20013;-88
2021/12/01 14:03:31;;;;;;;9.50;5.65;;;;;;;;;;6236572;28;20045;-88
2021/12/01 14:06:33;;;;;;;10.48;4.45;;;;;;;;;;6239610;28;20058;-88
2021/12/01 14:09:38;;;;;;;10.95;5.95;;;;;;;;;;6238918;28;20049;-87
2021/12/01 14:12:57;;;;;;;10.63;4.78;;;;;;;;;;6249114;28;20029;-88
2021/12/01 14:15:59;;;;;;;10.07;4.55;;;;;;;;;;6253473;28;20028;-87
2021/12/01 14:18:59;;;;;;;11.10;6.03;;;;;;;;;;6237929;28;20096;-87
2021/12/01 14:22:00;;;;;;;9.77;5.22;;;;;;;;;;6237766;28;20256;-87
2021/12/01 14:25:02;;;;;;;13.63;6.13;;;;;;;;;;6242917;28;20432;-88
2021/12/01 14:28:12;;;;;;;14.25;6.70;;;;;;;;;;6234600;28;20095;-87
2021/12/01 14:31:18;;;;;;;9.40;4.65;;;;;;;;;;6245384;28;20474;-87
2021/12/01 14:34:23;;;;;;;18.98;6.55;;;;;;;;;;6236976;28;20022;-87
2021/12/01 14:37:24;;;;;;;21.25;7.93;;;;;;;;;;6230273;28;20117;-87
2021/12/01 14:40:24;;;;;;;15.27;6.57;;;;;;;;;;6242106;28;20382;-87
2021/12/01 14:43:32;;;;;;;14.50;5.75;;;;;;;;;;6241115;28;20013;-87
2021/12/01 14:46:33;;;;;;;13.52;7.97;;;;;;;;;;6243105;28;20102;-88
2021/12/01 14:49:39;;;;;;;9.60;5.25;;;;;;;;;;6241112;28;20046;-87
2021/12/01 14:52:39;;;;;;;24.15;9.38;;;;;;;;;;6234914;28;20018;-87
2021/12/01 14:55:44;;;;;;;26.70;10.40;;;;;;;;;;6235784;28;20029;-87
2021/12/01 14:58:51;;;;;;;21.95;9.05;;;;;;;;;;6237857;28;20104;-87
2021/12/01 15:02:10;;;;;;;34.58;17.05;;;;;;;;;;6239905;28;20021;-87
2021/12/01 15:05:15;;;;;;;40.25;20.75;;;;;;;;;;6237243;28;20163;-87
2021/12/01 15:08:42;;;;;;;35.63;17.88;;;;;;;;;;6241288;28;20366;-87
2021/12/01 15:11:43;;;;;;;56.70;22.05;;;;;;;;;;6227866;28;20072;-88
2021/12/01 15:14:43;;;;;;;43.25;18.92;;;;;;;;;;6233749;28;20013;-87
2021/12/01 15:17:52;;;;;;;44.72;20.85;;;;;;;;;;6251838;28;20390;-87
2021/12/01 15:20:53;;;;;;;28.77;16.33;;;;;;;;;;6236578;28;20456;-87
2021/12/01 15:23:54;;;;;;;30.70;13.27;;;;;;;;;;6233057;28;20021;-88
2021/12/01 15:26:55;;;;;;;28.20;13.52;;;;;;;;;;6230568;28;20070;-88
2021/12/01 15:29:56;;;;;;;19.20;11.02;;;;;;;;;;6240217;28;20362;-88
2021/12/01 15:33:00;;;;;;;25.08;14.25;;;;;;;;;;6235023;28;20009;-87
2021/12/01 15:36:01;;;;;;;17.08;10.55;;;;;;;;;;6237290;28;20408;-87
2021/12/01 15:39:02;;;;;;;22.92;11.60;;;;;;;;;;6231436;28;20025;-87
2021/12/01 15:42:03;;;;;;;37.77;15.67;;;;;;;;;;6237334;28;20026;-87
2021/12/01 15:45:04;;;;;;;21.90;11.75;;;;;;;;;;6246092;28;20056;-88
2021/12/01 15:48:04;;;;;;;36.03;17.63;;;;;;;;;;6241998;28;20427;-87
2021/12/01 15:51:05;;;;;;;33.30;14.02;;;;;;;;;;6234053;28;20045;-87
2021/12/01 15:54:06;;;;;;;54.55;24.33;;;;;;;;;;6231938;28;20359;-88
2021/12/01 15:57:07;;;;;;;52.05;22.52;;;;;;;;;;6224846;28;20087;-88
2021/12/01 16:00:08;;;;;;;61.97;26.85;;;;;;;;;;6230355;28;20081;-88
2021/12/01 16:03:08;;;;;;;51.65;23.85;;;;;;;;;;6242531;28;20030;-87
2021/12/01 16:06:08;;;;;;;42.47;19.70;;;;;;;;;;6235412;28;20083;-87
2021/12/01 16:09:09;;;;;;;37.50;16.77;;;;;;;;;;6230195;28;20035;-87
2021/12/01 16:12:09;;;;;;;24.73;12.60;;;;;;;;;;6230192;28;20018;-87
2021/12/01 16:15:10;;;;;;;30.38;14.27;;;;;;;;;;6234059;28;20034;-88
2021/12/01 16:18:11;;;;;;;28.75;12.60;;;;;;;;;;6225923;28;20045;-87
2021/12/01 16:21:11;;;;;;;33.50;14.25;;;;;;;;;;6233512;28;20014;-87
2021/12/01 16:24:12;;;;;;;27.35;12.15;;;;;;;;;;6237497;28;20014;-87
2021/12/01 16:27:12;;;;;;;30.65;13.75;;;;;;;;;;6226481;28;20022;-87
2021/12/01 16:30:23;;;;;;;26.17;11.73;;;;;;;;;;6230161;28;20069;-87
2021/12/01 16:33:24;;;;;;;26.88;13.15;;;;;;;;;;6228102;28;20116;-87
2021/12/01 16:36:27;;;;;;;24.73;11.05;;;;;;;;;;6235517;28;20052;-87
2021/12/01 16:39:27;;;;;;;28.13;12.98;;;;;;;;;;6239507;28;20032;-87
2021/12/01 16:42:27;;;;;;;28.92;14.25;;;;;;;;;;6231306;28;20029;-87
2021/12/01 16:45:28;;;;;;;46.42;20.25;;;;;;;;;;6236212;28;20056;-87
2021/12/01 16:48:29;;;;;;;37.58;19.60;;;;;;;;;;6235583;28;20034;-87
2021/12/01 16:51:29;;;;;;;38.78;19.58;;;;;;;;;;6231413;28;20450;-87
2021/12/01 16:54:29;;;;;;;35.25;18.23;;;;;;;;;;6230491;28;20040;-87
2021/12/01 16:57:29;;;;;;;43.50;23.23;;;;;;;;;;6227677;28;20031;-87
2021/12/01 17:00:33;;;;;;;42.72;23.17;;;;;;;;;;6231541;28;20103;-87
2021/12/01 17:03:42;;;;;;;38.78;21.63;;;;;;;;;;6233715;28;20082;-87
2021/12/01 17:06:51;;;;;;;48.20;24.17;;;;;;;;;;6228689;28;20029;-87
2021/12/01 17:09:52;;;;;;;48.78;23.30;;;;;;;;;;6235501;28;20092;-87
2021/12/01 17:12:53;;;;;;;67.45;34.67;;;;;;;;;;6246399;28;20556;-87
2021/12/01 17:15:56;;;;;;;79.70;37.13;;;;;;;;;;6253438;28;20022;-86
2021/12/01 17:18:57;;;;;;;58.03;29.67;;;;;;;;;;6239286;28;20022;-87
2021/12/01 17:21:57;;;;;;;41.92;21.85;;;;;;;;;;6225389;28;20042;-87
2021/12/01 17:24:57;;;;;;;46.55;23.45;;;;;;;;;;6226127;28;20136;-87
2021/12/01 17:27:58;;;;;;;32.88;18.50;;;;;;;;;;6228973;28;20014;-88
2021/12/01 17:31:03;;;;;;;29.90;16.25;;;;;;;;;;6249371;28;20133;-87
2021/12/01 17:34:04;;;;;;;141.75;66.05;;;;;;;;;;6238827;28;20106;-87
2021/12/01 17:37:05;;;;;;;50.00;25.45;;;;;;;;;;6226388;28;20028;-87
2021/12/01 17:40:06;;;;;;;148.57;63.92;;;;;;;;;;6234789;28;20052;-87
2021/12/01 17:43:06;;;;;;;152.93;64.47;;;;;;;;;;6232640;28;20068;-87
2021/12/01 17:46:14;;;;;;;127.32;57.05;;;;;;;;;;6254671;28;20362;-87
2021/12/01 17:49:14;;;;;;;41.75;16.23;;;;;;;;;;6234980;28;20049;-87
2021/12/01 17:52:15;;;;;;;29.83;14.75;;;;;;;;;;6237314;28;20047;-87
2021/12/01 17:55:17;;;;;;;30.70;15.05;;;;;;;;;;6240165;28;20024;-87
2021/12/01 17:58:18;;;;;;;19.42;9.30;;;;;;;;;;6240449;28;20399;-87